createdAt,value
2023-03-22T00:00:03.084Z,16.72
2023-03-22T00:03:06.713Z,16.61
2023-03-22T00:06:08.939Z,16.60
2023-03-22T00:09:11.008Z,16.47
2023-03-22T00:12:12.849Z,16.48
2023-03-22T00:15:15.609Z,16.42
2023-03-22T00:18:17.710Z,16.36
2023-03-22T00:21:20.309Z,16.41
2023-03-22T00:24:23.401Z,16.38
2023-03-22T00:27:27.050Z,16.31
2023-03-22T00:30:28.874Z,16.22
2023-03-22T00:33:31.545Z,16.27
2023-03-22T00:36:33.470Z,16.19
2023-03-22T00:39:35.494Z,16.07
2023-03-22T00:42:37.819Z,15.92
2023-03-22T00:45:41.143Z,15.87
2023-03-22T00:48:43.457Z,15.77
2023-03-22T00:51:45.324Z,15.69
2023-03-22T00:54:47.829Z,15.63
2023-03-22T00:57:49.989Z,15.66
2023-03-22T01:00:52.226Z,15.83
2023-03-22T01:03:54.531Z,15.83
2023-03-22T01:07:03.855Z,15.87
2023-03-22T01:10:06.413Z,15.73
2023-03-22T01:13:09.292Z,15.76
2023-03-22T01:16:11.369Z,15.76
2023-03-22T01:19:13.648Z,15.70
2023-03-22T01:22:15.761Z,15.67
2023-03-22T01:25:17.814Z,15.52
2023-03-22T01:28:19.811Z,15.25
2023-03-22T01:31:21.791Z,15.19
2023-03-22T01:34:23.797Z,15.12
2023-03-22T01:37:27.894Z,15.04
2023-03-22T01:40:29.910Z,15.05
2023-03-22T01:43:32.222Z,15.00
2023-03-22T01:46:34.862Z,14.99
2023-03-22T01:49:37.639Z,14.95
2023-03-22T01:52:40.807Z,15.28
2023-03-22T01:55:53.960Z,15.46
2023-03-22T01:59:01.873Z,15.51
2023-03-22T02:02:19.184Z,15.52
2023-03-22T02:05:28.704Z,15.49
2023-03-22T02:08:36.424Z,15.40
2023-03-22T02:11:49.756Z,15.43
2023-03-22T02:15:05.398Z,15.36
2023-03-22T02:18:39.448Z,15.02
2023-03-22T02:22:00.603Z,14.80
2023-03-22T02:25:21.838Z,14.78
2023-03-22T02:28:37.466Z,14.71
2023-03-22T02:31:45.408Z,14.72
2023-03-22T02:35:05.471Z,14.74
2023-03-22T02:38:16.743Z,14.65
2023-03-22T02:41:21.999Z,14.74
2023-03-22T02:44:24.106Z,14.88
2023-03-22T02:47:35.360Z,15.09
2023-03-22T02:50:54.744Z,15.14
2023-03-22T02:54:15.460Z,15.18
2023-03-22T02:57:25.091Z,15.14
2023-03-22T03:00:30.675Z,15.09
2023-03-22T03:03:33.573Z,15.11
2023-03-22T03:06:46.374Z,15.01
2023-03-22T03:09:49.270Z,14.97
2023-03-22T03:12:51.681Z,14.73
2023-03-22T03:15:57.330Z,14.71
2023-03-22T03:19:03.722Z,14.50
2023-03-22T03:22:13.406Z,14.49
2023-03-22T03:25:27.611Z,14.45
2023-03-22T03:28:38.356Z,14.51
2023-03-22T03:31:44.195Z,14.54
2023-03-22T03:34:49.801Z,14.47
2023-03-22T03:37:53.991Z,14.81
2023-03-22T03:40:59.170Z,14.97
2023-03-22T03:44:01.389Z,14.98
2023-03-22T03:47:04.132Z,14.96
2023-03-22T03:50:06.439Z,14.91
2023-03-22T03:53:08.533Z,14.79
2023-03-22T03:56:10.589Z,14.73
2023-03-22T03:59:18.060Z,14.71
2023-03-22T04:02:23.005Z,14.52
2023-03-22T04:05:27.285Z,14.43
2023-03-22T04:08:29.503Z,14.30
2023-03-22T04:11:31.863Z,14.19
2023-03-22T04:14:36.976Z,14.26
2023-03-22T04:17:46.743Z,14.30
2023-03-22T04:20:53.754Z,14.26
2023-03-22T04:23:57.721Z,14.27
2023-03-22T04:27:01.514Z,14.33
2023-03-22T04:30:11.257Z,14.36
2023-03-22T04:33:49.983Z,14.42
2023-03-22T04:37:05.004Z,14.45
2023-03-22T04:40:21.845Z,14.40
2023-03-22T04:43:44.825Z,14.48
2023-03-22T04:46:48.911Z,14.54
2023-03-22T04:49:51.119Z,14.44
2023-03-22T04:52:53.190Z,14.50
2023-03-22T04:55:57.283Z,14.37
2023-03-22T04:59:01.558Z,14.30
2023-03-22T05:02:03.755Z,14.21
2023-03-22T05:05:12.974Z,14.19
2023-03-22T05:08:16.002Z,14.19
2023-03-22T05:11:22.144Z,14.16
2023-03-22T05:14:37.447Z,14.17
2023-03-22T05:17:40.828Z,14.20
2023-03-22T05:20:43.537Z,14.31
2023-03-22T05:23:52.229Z,14.48
2023-03-22T05:26:55.127Z,14.48
2023-03-22T05:30:02.243Z,14.68
2023-03-22T05:33:22.081Z,15.13
2023-03-22T05:36:29.812Z,15.43
2023-03-22T05:39:57.793Z,15.64
2023-03-22T05:43:11.105Z,15.66
2023-03-22T05:46:17.550Z,15.66
2023-03-22T05:49:39.729Z,15.94
2023-03-22T05:52:43.062Z,15.99
2023-03-22T05:56:13.996Z,15.93
2023-03-22T05:59:17.902Z,15.97
2023-03-22T06:02:21.528Z,16.03
2023-03-22T06:05:23.853Z,16.07
2023-03-22T06:08:27.335Z,15.90
2023-03-22T06:11:30.660Z,15.89
2023-03-22T06:14:33.108Z,15.79
2023-03-22T06:18:01.126Z,15.76
2023-03-22T06:21:06.876Z,15.82
2023-03-22T06:24:09.084Z,16.02
2023-03-22T06:27:11.391Z,16.15
2023-03-22T06:30:15.526Z,16.81
2023-03-22T06:33:38.862Z,16.88
2023-03-22T06:36:53.663Z,16.97
2023-03-22T06:40:02.702Z,17.77
2023-03-22T06:43:07.205Z,18.55
2023-03-22T06:46:11.808Z,18.54
2023-03-22T06:49:21.978Z,18.29
2023-03-22T06:52:26.544Z,18.33
2023-03-22T06:55:28.798Z,18.39
2023-03-22T06:58:30.908Z,18.27
2023-03-22T07:01:33.322Z,18.26
2023-03-22T07:04:35.856Z,18.41
2023-03-22T07:07:38.029Z,18.23
2023-03-22T07:10:40.346Z,18.01
2023-03-22T07:13:42.738Z,17.82
2023-03-22T07:16:49.780Z,17.92
2023-03-22T07:19:53.590Z,17.88
2023-03-22T07:22:57.839Z,17.85
2023-03-22T07:26:03.127Z,17.78
2023-03-22T07:29:08.876Z,17.66
2023-03-22T07:32:11.522Z,17.60
2023-03-22T07:35:34.809Z,17.59
2023-03-22T07:38:37.820Z,17.61
2023-03-22T07:45:37.745Z,18.07
2023-03-22T07:49:02.822Z,17.90
2023-03-22T07:52:23.176Z,17.82
2023-03-22T07:55:25.453Z,17.75
2023-03-22T07:58:27.597Z,17.68
2023-03-22T08:01:32.103Z,17.70
2023-03-22T08:05:45.560Z,17.70
2023-03-22T08:08:49.712Z,17.66
2023-03-22T08:11:51.676Z,17.58
2023-03-22T08:14:54.349Z,17.65
2023-03-22T08:18:00.760Z,17.60
2023-03-22T08:21:10.930Z,17.64
2023-03-22T08:24:14.369Z,17.64
2023-03-22T08:27:46.060Z,17.66
2023-03-22T08:30:49.622Z,17.70
2023-03-22T08:33:51.774Z,17.67
2023-03-22T08:36:53.709Z,17.68
2023-03-22T08:39:55.873Z,17.70
2023-03-22T08:43:06.945Z,17.74
2023-03-22T08:46:10.375Z,17.76
2023-03-22T08:49:12.939Z,17.84
2023-03-22T08:52:24.059Z,17.92
2023-03-22T08:55:32.272Z,17.93
2023-03-22T08:58:46.894Z,17.99
2023-03-22T09:02:09.257Z,18.06
2023-03-22T09:05:13.691Z,18.14
2023-03-22T09:08:19.698Z,18.22
2023-03-22T09:11:30.607Z,18.15
2023-03-22T09:14:33.842Z,18.29
2023-03-22T09:17:36.560Z,18.37
2023-03-22T09:20:40.322Z,18.27
2023-03-22T09:23:47.987Z,18.14
2023-03-22T09:26:54.200Z,18.14
2023-03-22T09:29:56.432Z,18.12
2023-03-22T09:33:02.269Z,18.20
2023-03-22T09:36:06.011Z,18.24
2023-03-22T09:39:10.153Z,18.22
2023-03-22T09:42:21.327Z,18.29
2023-03-22T09:45:43.876Z,18.36
2023-03-22T09:48:48.400Z,18.55
2023-03-22T09:51:52.675Z,18.56
2023-03-22T09:54:54.905Z,18.61
2023-03-22T09:58:02.635Z,18.71
2023-03-22T10:01:24.852Z,18.79
2023-03-22T10:04:59.418Z,18.87
2023-03-22T10:08:01.560Z,18.88
2023-03-22T10:11:07.685Z,19.01
2023-03-22T10:14:24.743Z,18.93
2023-03-22T10:17:27.329Z,18.98
2023-03-22T10:20:37.120Z,19.10
2023-03-22T10:23:39.532Z,19.19
2023-03-22T10:26:42.602Z,19.28
2023-03-22T10:30:04.756Z,19.26
2023-03-22T10:33:21.467Z,19.29
2023-03-22T10:36:26.509Z,19.39
2023-03-22T10:39:38.467Z,19.24
2023-03-22T10:42:43.290Z,19.16
2023-03-22T10:45:45.517Z,19.18
2023-03-22T10:48:50.030Z,19.23
2023-03-22T10:51:54.829Z,19.22
2023-03-22T10:55:01.295Z,19.33
2023-03-22T10:58:12.790Z,19.52
2023-03-22T11:01:17.390Z,19.68
2023-03-22T11:04:19.408Z,19.77
2023-03-22T11:07:32.222Z,19.79
2023-03-22T11:10:34.308Z,19.78
2023-03-22T11:13:36.741Z,19.76
2023-03-22T11:16:53.018Z,19.74
2023-03-22T11:20:07.836Z,19.71
2023-03-22T11:23:17.904Z,19.61
2023-03-22T11:29:49.706Z,19.35
2023-03-22T11:33:02.320Z,19.44
2023-03-22T11:36:16.230Z,19.51
2023-03-22T11:39:19.024Z,19.66
2023-03-22T11:42:21.577Z,19.74
2023-03-22T11:45:35.491Z,19.84
2023-03-22T11:48:37.908Z,19.93
2023-03-22T11:51:41.069Z,20.03
2023-03-22T11:54:44.346Z,20.07
2023-03-22T11:57:46.801Z,19.96
2023-03-22T12:00:52.654Z,19.88
2023-03-22T12:03:56.703Z,19.88
2023-03-22T12:07:00.736Z,19.83
2023-03-22T12:10:28.876Z,19.81
2023-03-22T12:13:52.309Z,19.67
2023-03-22T12:17:01.587Z,19.61
2023-03-22T12:20:23.460Z,19.59
2023-03-22T12:23:29.325Z,19.57
2023-03-22T12:26:34.420Z,19.57
2023-03-22T12:29:36.755Z,19.57
2023-03-22T12:32:44.772Z,19.50
2023-03-22T12:35:47.572Z,19.49
2023-03-22T12:38:58.095Z,19.50
2023-03-22T12:42:03.137Z,19.54
2023-03-22T12:45:12.884Z,19.60
2023-03-22T12:48:21.576Z,19.60
2023-03-22T12:51:23.905Z,19.58
2023-03-22T12:54:26.518Z,19.53
2023-03-22T12:57:30.131Z,19.51
2023-03-22T13:00:38.500Z,19.51
2023-03-22T13:03:48.016Z,19.53
2023-03-22T13:06:53.717Z,19.53
2023-03-22T13:09:55.825Z,19.51
2023-03-22T13:13:17.862Z,19.51
2023-03-22T13:16:23.062Z,19.52
2023-03-22T13:19:38.718Z,19.48
2023-03-22T13:22:43.599Z,19.43
2023-03-22T13:26:00.246Z,19.45
2023-03-22T13:29:08.078Z,19.45
2023-03-22T13:32:30.741Z,19.50
2023-03-22T13:35:46.758Z,19.51
2023-03-22T13:38:54.744Z,19.54
2023-03-22T13:42:15.610Z,19.55
2023-03-22T13:45:34.265Z,19.53
2023-03-22T13:48:41.460Z,19.51
2023-03-22T13:51:44.249Z,19.53
2023-03-22T13:54:49.135Z,19.50
2023-03-22T13:57:59.249Z,19.48
2023-03-22T14:01:01.314Z,19.48
2023-03-22T14:04:12.490Z,19.54
2023-03-22T14:07:21.916Z,19.56
2023-03-22T14:10:28.353Z,19.58
2023-03-22T14:14:02.856Z,19.57
2023-03-22T14:17:37.188Z,19.51
2023-03-22T14:20:40.231Z,19.43
